createdAt,value
2018-04-09T00:01:35.805Z,11.60
2018-04-09T00:04:03.330Z,11.60
2018-04-09T00:06:31.653Z,11.50
2018-04-09T00:08:59.182Z,11.50
2018-04-09T00:11:26.710Z,11.60
2018-04-09T00:13:54.265Z,11.70
2018-04-09T00:16:21.798Z,11.70
2018-04-09T00:18:50.310Z,11.60
2018-04-09T00:21:18.810Z,11.60
2018-04-09T00:23:46.383Z,11.60
2018-04-09T00:26:14.849Z,11.60
2018-04-09T00:28:42.377Z,11.50
2018-04-09T00:31:09.937Z,11.50
2018-04-09T00:33:37.462Z,11.50
2018-04-09T00:36:05.018Z,11.60
2018-04-09T00:38:32.558Z,11.60
2018-04-09T00:41:00.118Z,11.50
2018-04-09T00:43:27.637Z,11.40
2018-04-09T00:45:55.202Z,11.40
2018-04-09T00:48:22.814Z,11.40
2018-04-09T00:50:50.318Z,11.40
2018-04-09T00:53:17.862Z,11.40
2018-04-09T00:55:45.386Z,11.40
2018-04-09T00:58:12.958Z,11.40
2018-04-09T01:00:40.478Z,11.50
2018-04-09T01:03:08.040Z,11.50
2018-04-09T01:05:35.581Z,11.50
2018-04-09T01:08:03.894Z,11.50
2018-04-09T01:10:31.413Z,11.50
2018-04-09T01:12:59.731Z,11.50
2018-04-09T01:15:27.260Z,11.50
2018-04-09T01:17:54.790Z,11.50
2018-04-09T01:20:22.342Z,11.50
2018-04-09T01:22:49.854Z,11.40
2018-04-09T01:25:19.346Z,11.50
2018-04-09T01:27:47.637Z,11.40
2018-04-09T01:30:16.141Z,11.40
2018-04-09T01:32:43.657Z,11.40
2018-04-09T01:35:11.945Z,11.30
2018-04-09T01:37:39.502Z,11.30
2018-04-09T01:40:07.027Z,11.20
2018-04-09T01:42:34.590Z,11.20
2018-04-09T01:45:02.127Z,11.20
2018-04-09T01:47:29.672Z,11.10
2018-04-09T01:49:57.198Z,11.00
2018-04-09T01:52:24.752Z,11.00
2018-04-09T01:54:53.050Z,11.00
2018-04-09T01:57:20.578Z,10.90
2018-04-09T01:59:48.134Z,11.00
2018-04-09T02:02:15.669Z,10.90
2018-04-09T02:04:43.219Z,11.00
2018-04-09T02:07:10.741Z,10.90
2018-04-09T02:09:38.293Z,11.00
2018-04-09T02:12:05.825Z,11.00
2018-04-09T02:14:34.140Z,10.90
2018-04-09T02:17:01.670Z,10.90
2018-04-09T02:19:29.193Z,10.90
2018-04-09T02:21:56.776Z,10.90
2018-04-09T02:24:24.311Z,10.90
2018-04-09T02:26:51.877Z,10.90
2018-04-09T02:29:19.398Z,10.90
2018-04-09T02:31:46.947Z,10.80
2018-04-09T02:34:14.475Z,10.80
2018-04-09T02:36:43.032Z,10.70
2018-04-09T02:39:10.566Z,10.70
2018-04-09T02:41:38.088Z,10.70
2018-04-09T02:44:05.646Z,10.80
2018-04-09T02:46:34.172Z,10.60
2018-04-09T02:49:02.688Z,10.70
2018-04-09T02:51:30.214Z,10.70
2018-04-09T02:53:57.765Z,10.70
2018-04-09T02:56:27.296Z,10.50
2018-04-09T02:58:54.874Z,10.50
2018-04-09T03:01:23.161Z,10.60
2018-04-09T03:03:50.694Z,10.50
2018-04-09T03:06:18.254Z,10.60
2018-04-09T03:08:45.802Z,10.60
2018-04-09T03:11:14.319Z,10.60
2018-04-09T03:13:41.854Z,10.60
2018-04-09T03:16:09.419Z,10.70
2018-04-09T03:18:36.936Z,10.70
2018-04-09T03:21:04.460Z,10.70
2018-04-09T03:23:32.014Z,10.70
2018-04-09T03:26:00.308Z,10.70
2018-04-09T03:28:27.855Z,10.70
2018-04-09T03:30:55.379Z,10.60
2018-04-09T03:33:22.933Z,10.60
2018-04-09T03:35:50.467Z,10.50
2018-04-09T03:38:17.989Z,10.50
2018-04-09T03:40:45.534Z,10.50
2018-04-09T03:43:13.068Z,10.50
2018-04-09T03:45:40.631Z,10.50
2018-04-09T03:48:08.155Z,10.50
2018-04-09T03:50:35.706Z,10.50
2018-04-09T03:53:03.235Z,10.50
2018-04-09T03:55:31.530Z,10.60
2018-04-09T03:57:59.088Z,10.60
2018-04-09T04:00:26.625Z,10.60
2018-04-09T04:02:54.935Z,10.70
2018-04-09T04:05:22.751Z,10.70
2018-04-09T04:07:50.293Z,10.70
2018-04-09T04:10:17.831Z,10.70
2018-04-09T04:12:45.364Z,10.80
2018-04-09T04:15:12.917Z,10.70
2018-04-09T04:17:52.274Z,10.70
2018-04-09T04:20:31.703Z,10.60
2018-04-09T04:22:59.246Z,10.60
2018-04-09T04:25:26.805Z,10.60
2018-04-09T04:27:54.327Z,10.60
2018-04-09T04:30:21.886Z,10.60
2018-04-09T04:32:49.415Z,10.50
2018-04-09T04:35:16.941Z,10.50
2018-04-09T04:37:44.490Z,10.50
2018-04-09T04:40:12.790Z,10.30
2018-04-09T04:42:40.351Z,10.30
2018-04-09T04:45:08.217Z,10.30
2018-04-09T04:47:35.828Z,10.30
2018-04-09T04:50:04.124Z,10.40
2018-04-09T04:52:32.607Z,10.40
2018-04-09T04:55:00.155Z,10.50
2018-04-09T04:57:28.447Z,10.60
2018-04-09T04:59:58.719Z,10.70
2018-04-09T05:02:26.247Z,10.70
2018-04-09T05:04:53.809Z,10.80
2018-04-09T05:07:21.333Z,10.80
2018-04-09T05:09:50.590Z,10.80
2018-04-09T05:12:18.143Z,10.80
2018-04-09T05:14:45.667Z,10.70
2018-04-09T05:17:13.222Z,10.70
2018-04-09T05:19:40.755Z,10.70
2018-04-09T05:22:09.119Z,10.80
2018-04-09T05:24:37.422Z,10.80
2018-04-09T05:27:06.702Z,10.90
2018-04-09T05:29:35.025Z,11.00
2018-04-09T05:32:02.594Z,10.90
2018-04-09T05:34:31.133Z,11.10
2018-04-09T05:36:58.679Z,11.20
2018-04-09T05:39:26.254Z,11.30
2018-04-09T05:41:53.786Z,11.40
2018-04-09T05:44:21.313Z,11.50
2018-04-09T05:46:48.866Z,11.40
2018-04-09T05:49:16.407Z,11.30
2018-04-09T05:51:43.966Z,11.30
2018-04-09T05:54:11.495Z,11.30
2018-04-09T05:56:39.072Z,11.30
2018-04-09T05:59:07.480Z,11.30
2018-04-09T06:01:35.038Z,11.30
2018-04-09T06:04:02.598Z,11.40
2018-04-09T06:06:30.123Z,11.30
2018-04-09T06:08:57.696Z,11.40
2018-04-09T06:11:25.218Z,11.50
2018-04-09T06:13:52.786Z,11.60
2018-04-09T06:16:20.456Z,11.70
2018-04-09T06:18:48.019Z,11.70
2018-04-09T06:21:16.311Z,11.80
2018-04-09T06:23:43.839Z,11.80
2018-04-09T06:26:12.155Z,12.00
2018-04-09T06:28:40.646Z,12.00
2018-04-09T06:31:08.197Z,12.10
2018-04-09T06:33:35.719Z,12.20
2018-04-09T06:36:04.269Z,12.10
2018-04-09T06:38:31.820Z,12.00
2018-04-09T06:40:59.380Z,12.10
2018-04-09T06:43:26.929Z,12.10
2018-04-09T06:45:54.461Z,12.30
2018-04-09T06:48:22.015Z,12.30
2018-04-09T06:50:50.306Z,12.30
2018-04-09T06:53:17.883Z,12.30
2018-04-09T06:55:45.417Z,12.50
2018-04-09T06:58:12.979Z,12.60
2018-04-09T07:00:40.502Z,12.70
2018-04-09T07:03:08.079Z,12.80
2018-04-09T07:05:36.389Z,13.00
2018-04-09T07:08:04.103Z,13.00
2018-04-09T07:10:31.670Z,12.80
2018-04-09T07:12:59.205Z,12.80
2018-04-09T07:15:27.730Z,12.80
2018-04-09T07:17:55.255Z,12.80
2018-04-09T07:20:22.808Z,13.00
2018-04-09T07:22:50.338Z,13.10
2018-04-09T07:25:17.885Z,13.10
2018-04-09T07:27:45.458Z,13.10
2018-04-09T07:30:13.006Z,13.30
2018-04-09T07:32:40.554Z,13.40
2018-04-09T07:35:08.095Z,13.50
2018-04-09T07:37:36.414Z,13.90
2018-04-09T07:40:03.950Z,13.80
2018-04-09T07:42:31.512Z,13.90
2018-04-09T07:44:59.047Z,14.10
2018-04-09T07:47:27.528Z,14.20
2018-04-09T07:49:55.843Z,14.60
2018-04-09T07:52:23.367Z,14.60
2018-04-09T07:54:50.919Z,14.60
2018-04-09T07:57:19.230Z,14.50
2018-04-09T07:59:46.794Z,14.50
2018-04-09T08:02:14.314Z,14.40
2018-04-09T08:04:41.873Z,14.60
2018-04-09T08:07:10.168Z,14.70
2018-04-09T08:09:37.714Z,14.70
2018-04-09T08:12:06.042Z,15.00
2018-04-09T08:14:33.598Z,15.00
2018-04-09T08:17:01.156Z,15.30
2018-04-09T08:19:28.729Z,15.50
2018-04-09T08:21:56.273Z,15.60
2018-04-09T08:24:23.809Z,15.60
2018-04-09T08:26:51.394Z,15.70
2018-04-09T08:29:18.930Z,15.80
2018-04-09T08:31:47.452Z,15.80
2018-04-09T08:34:15.030Z,15.80
2018-04-09T08:36:42.571Z,16.00
2018-04-09T08:39:10.132Z,16.10
2018-04-09T08:41:37.662Z,16.30
2018-04-09T08:44:05.218Z,16.40
2018-04-09T08:46:32.746Z,16.50
2018-04-09T08:49:01.069Z,16.60
2018-04-09T08:51:28.595Z,16.60
2018-04-09T08:53:56.118Z,16.40
2018-04-09T08:56:23.714Z,16.70
2018-04-09T08:58:52.205Z,17.00
2018-04-09T09:01:19.780Z,17.10
2018-04-09T09:03:48.272Z,17.20
2018-04-09T09:06:15.835Z,17.30
2018-04-09T09:08:43.410Z,17.40
2018-04-09T09:11:10.929Z,17.50
2018-04-09T09:13:38.487Z,17.70
2018-04-09T09:16:06.017Z,17.80
2018-04-09T09:18:33.575Z,17.80
2018-04-09T09:21:01.129Z,17.90
2018-04-09T09:23:28.687Z,18.10
2018-04-09T09:25:56.990Z,17.70
2018-04-09T09:28:25.123Z,17.70
2018-04-09T09:30:53.773Z,17.90
2018-04-09T09:33:21.302Z,17.90
2018-04-09T09:35:48.870Z,18.00
2018-04-09T09:38:16.399Z,18.20
2018-04-09T09:40:44.723Z,18.00
2018-04-09T09:43:13.204Z,18.00
2018-04-09T09:45:40.756Z,18.00
2018-04-09T09:48:08.279Z,18.30
2018-04-09T09:50:35.858Z,18.20
2018-04-09T09:53:03.379Z,18.40
2018-04-09T09:55:31.678Z,19.10
2018-04-09T09:57:59.239Z,19.10
2018-04-09T10:00:32.342Z,19.30
2018-04-09T10:03:00.925Z,19.60
2018-04-09T10:05:28.473Z,19.30
2018-04-09T10:07:56.027Z,19.10
2018-04-09T10:10:23.563Z,18.80
2018-04-09T10:12:51.472Z,19.10
2018-04-09T10:15:19.962Z,19.30
2018-04-09T10:17:47.492Z,19.40
2018-04-09T10:20:16.989Z,19.60
2018-04-09T10:22:44.538Z,19.80
2018-04-09T10:25:12.102Z,20.00
2018-04-09T10:27:40.400Z,19.60
2018-04-09T10:30:07.977Z,19.60
2018-04-09T10:32:35.509Z,19.10
2018-04-09T10:35:03.066Z,18.90
2018-04-09T10:37:30.595Z,19.20
2018-04-09T10:39:58.123Z,19.60
2018-04-09T10:42:25.682Z,20.00
2018-04-09T10:44:54.160Z,20.00
2018-04-09T10:47:21.719Z,20.10
2018-04-09T10:49:50.206Z,20.30
2018-04-09T10:52:17.759Z,20.50
2018-04-09T10:54:45.287Z,20.70
2018-04-09T10:57:12.841Z,20.90
2018-04-09T10:59:40.375Z,20.30
2018-04-09T11:02:08.666Z,20.20
2018-04-09T11:04:36.210Z,20.20
2018-04-09T11:07:04.507Z,20.80
2018-04-09T11:09:32.095Z,20.70
2018-04-09T11:11:59.623Z,20.60
2018-04-09T11:14:27.183Z,20.70
2018-04-09T11:16:55.483Z,20.80
2018-04-09T11:19:23.040Z,20.80
2018-04-09T11:21:50.564Z,21.20
2018-04-09T11:24:18.094Z,20.70
2018-04-09T11:26:45.643Z,20.50
2018-04-09T11:29:13.194Z,20.30
2018-04-09T11:31:40.758Z,20.30
2018-04-09T11:34:09.242Z,20.70
2018-04-09T11:36:36.800Z,20.60
2018-04-09T11:39:04.318Z,20.00
2018-04-09T11:41:31.890Z,19.80
2018-04-09T11:43:59.443Z,20.20
2018-04-09T11:46:26.988Z,20.00
2018-04-09T11:48:55.310Z,20.60
2018-04-09T11:51:22.842Z,20.60
2018-04-09T11:53:50.403Z,20.90
2018-04-09T11:56:17.940Z,20.80
2018-04-09T11:58:46.260Z,19.90
2018-04-09T12:01:13.792Z,19.90
2018-04-09T12:03:41.313Z,20.00
2018-04-09T12:06:08.880Z,19.70
2018-04-09T12:08:36.400Z,19.70
2018-04-09T12:11:05.904Z,19.80
2018-04-09T12:13:34.388Z,20.30
2018-04-09T12:16:01.947Z,20.40
2018-04-09T12:18:29.472Z,20.80
2018-04-09T12:20:57.033Z,21.20
2018-04-09T12:23:24.558Z,21.20
2018-04-09T12:25:53.044Z,21.30
2018-04-09T12:28:21.384Z,20.50
2018-04-09T12:30:48.917Z,20.50
2018-04-09T12:33:16.467Z,20.60
2018-04-09T12:35:43.984Z,20.70
2018-04-09T12:38:11.524Z,20.90
2018-04-09T12:40:39.054Z,21.10
2018-04-09T12:43:06.609Z,21.10
2018-04-09T12:45:34.138Z,21.50
2018-04-09T12:48:01.665Z,22.00
2018-04-09T12:50:29.215Z,22.10
2018-04-09T12:52:56.744Z,22.20
2018-04-09T12:55:24.297Z,21.40
2018-04-09T12:57:51.805Z,21.50
2018-04-09T13:00:19.360Z,21.70
2018-04-09T13:02:46.889Z,22.00
2018-04-09T13:05:14.414Z,22.00
2018-04-09T13:07:42.016Z,21.70
2018-04-09T13:10:09.579Z,21.80
2018-04-09T13:12:37.101Z,21.40
2018-04-09T13:15:05.624Z,21.00
2018-04-09T13:17:33.192Z,20.70
2018-04-09T13:20:00.720Z,20.60
2018-04-09T13:22:28.250Z,20.90
2018-04-09T13:24:57.747Z,21.70
2018-04-09T13:27:25.271Z,22.50
2018-04-09T13:29:52.814Z,23.30
2018-04-09T13:32:20.359Z,22.20
2018-04-09T13:34:47.911Z,21.70
2018-04-09T13:37:15.436Z,21.70
2018-04-09T13:39:45.708Z,21.60
2018-04-09T13:42:13.267Z,21.50
2018-04-09T13:44:40.798Z,21.40
2018-04-09T13:47:08.353Z,21.60
2018-04-09T13:49:35.877Z,22.10
2018-04-09T13:52:03.433Z,21.80
2018-04-09T13:54:31.743Z,22.60
2018-04-09T13:57:00.103Z,23.90
2018-04-09T13:59:27.636Z,23.90
2018-04-09T14:01:55.188Z,24.50
2018-04-09T14:04:22.931Z,24.60
2018-04-09T14:06:50.598Z,24.40
2018-04-09T14:09:18.462Z,23.90
2018-04-09T14:11:46.948Z,23.90
2018-04-09T14:14:16.434Z,24.10
2018-04-09T14:16:43.960Z,24.40
2018-04-09T14:19:18.178Z,24.50
2018-04-09T14:21:45.709Z,23.70
2018-04-09T14:24:13.260Z,23.40
2018-04-09T14:26:40.797Z,22.50
2018-04-09T14:29:08.329Z,22.90
2018-04-09T14:31:36.650Z,22.60
2018-04-09T14:34:04.178Z,22.60
2018-04-09T14:36:33.712Z,22.70
2018-04-09T14:39:01.236Z,22.90
2018-04-09T14:41:29.556Z,23.20
2018-04-09T14:43:58.041Z,23.20
2018-04-09T14:46:27.096Z,23.70
2018-04-09T14:48:54.635Z,23.50
2018-04-09T14:51:22.166Z,23.60
2018-04-09T14:53:49.725Z,23.00
2018-04-09T14:56:18.275Z,23.20
2018-04-09T14:58:47.682Z,22.70
2018-04-09T15:01:16.174Z,22.70
2018-04-09T15:03:43.729Z,22.70
2018-04-09T15:06:12.221Z,22.50
2018-04-09T15:08:39.771Z,22.40
2018-04-09T15:11:07.292Z,22.00
2018-04-09T15:13:34.814Z,21.90
2018-04-09T15:16:02.391Z,21.80
2018-04-09T15:18:30.676Z,21.70
2018-04-09T15:20:58.992Z,22.00
2018-04-09T15:23:26.522Z,21.90
2018-04-09T15:25:54.263Z,21.90
2018-04-09T15:28:21.838Z,21.70
2018-04-09T15:30:50.160Z,21.30
2018-04-09T15:33:17.719Z,21.30
2018-04-09T15:35:46.198Z,21.40
2018-04-09T15:38:13.753Z,21.40
2018-04-09T15:40:42.248Z,21.20
2018-04-09T15:43:09.810Z,21.00
2018-04-09T15:45:37.340Z,21.00
2018-04-09T15:48:04.905Z,21.00
2018-04-09T15:50:32.429Z,21.10
2018-04-09T15:53:00.760Z,20.70
2018-04-09T15:55:28.301Z,20.70
2018-04-09T15:57:55.824Z,20.40
2018-04-09T16:00:24.148Z,19.80
2018-04-09T16:02:51.684Z,19.70
2018-04-09T16:05:19.233Z,19.80
2018-04-09T16:07:46.760Z,19.80
2018-04-09T16:10:14.322Z,19.80
2018-04-09T16:12:42.613Z,20.40
2018-04-09T16:15:10.963Z,20.50
2018-04-09T16:20:39.928Z,20.40
2018-04-09T16:23:08.408Z,20.30
2018-04-09T16:25:35.928Z,20.40
2018-04-09T16:28:03.493Z,20.40
2018-04-09T16:30:31.026Z,20.30
2018-04-09T16:32:58.588Z,20.30
2018-04-09T16:35:26.929Z,20.20
2018-04-09T16:37:56.477Z,20.30
2018-04-09T16:40:24.193Z,20.20
2018-04-09T16:42:51.745Z,20.20
2018-04-09T16:45:19.292Z,20.10
2018-04-09T16:47:46.941Z,20.00
2018-04-09T16:50:15.272Z,20.00
2018-04-09T16:52:42.808Z,20.00
2018-04-09T16:55:10.366Z,19.90
2018-04-09T16:57:37.908Z,19.90
2018-04-09T17:00:05.484Z,19.80
2018-04-09T17:02:33.005Z,19.80
2018-04-09T17:05:02.582Z,19.60
2018-04-09T17:07:30.106Z,19.60
2018-04-09T17:09:58.576Z,19.60
2018-04-09T17:12:26.145Z,19.40
2018-04-09T17:14:53.672Z,19.20
2018-04-09T17:17:21.992Z,18.60
2018-04-09T17:19:49.569Z,18.60
2018-04-09T17:22:17.115Z,18.60
2018-04-09T17:24:44.640Z,18.60
2018-04-09T17:27:12.209Z,18.40
2018-04-09T17:29:39.745Z,18.40
2018-04-09T17:32:09.020Z,18.00
2018-04-09T17:34:36.589Z,17.90
2018-04-09T17:37:04.122Z,17.90
2018-04-09T17:39:31.692Z,17.90
2018-04-09T17:41:59.233Z,17.80
2018-04-09T17:44:26.791Z,17.60
2018-04-09T17:46:54.315Z,17.70
2018-04-09T17:49:21.943Z,17.70
2018-04-09T17:51:49.469Z,17.70
2018-04-09T17:54:17.981Z,17.70
2018-04-09T17:56:45.550Z,17.70
2018-04-09T17:59:13.841Z,17.70
2018-04-09T18:01:41.414Z,17.60
2018-04-09T18:04:08.932Z,17.60
2018-04-09T18:06:36.499Z,17.60
2018-04-09T18:09:06.755Z,17.50
2018-04-09T18:11:34.326Z,17.50
2018-04-09T18:14:01.852Z,17.40
2018-04-09T18:16:30.160Z,17.40
2018-04-09T18:18:57.715Z,17.40
2018-04-09T18:21:25.249Z,17.40
2018-04-09T18:23:53.564Z,17.40
2018-04-09T18:26:21.100Z,17.40
2018-04-09T18:28:48.649Z,17.30
2018-04-09T18:31:16.936Z,17.30
2018-04-09T18:33:44.498Z,17.20
2018-04-09T18:36:12.035Z,17.30
2018-04-09T18:38:39.553Z,17.20
2018-04-09T18:41:07.113Z,17.20
2018-04-09T18:43:34.646Z,17.20
2018-04-09T18:46:02.204Z,17.10
2018-04-09T18:48:29.734Z,17.10
2018-04-09T18:50:58.056Z,17.00
2018-04-09T18:53:25.599Z,16.90
2018-04-09T18:55:53.157Z,16.80
2018-04-09T18:58:20.691Z,16.70
2018-04-09T19:00:48.228Z,16.70
2018-04-09T19:03:15.792Z,16.60
2018-04-09T19:05:44.106Z,16.50
2018-04-09T19:08:11.671Z,16.50
2018-04-09T19:10:39.200Z,16.50
2018-04-09T19:13:07.510Z,16.20
2018-04-09T19:15:35.037Z,16.20
2018-04-09T19:18:03.361Z,16.20
2018-04-09T19:20:30.887Z,16.10
2018-04-09T19:22:58.410Z,16.20
2018-04-09T19:25:25.973Z,16.10
2018-04-09T19:27:53.491Z,15.80
2018-04-09T19:30:21.045Z,15.60
2018-04-09T19:32:48.578Z,15.50
2018-04-09T19:35:16.138Z,15.50
2018-04-09T19:37:49.354Z,15.40
2018-04-09T19:40:22.573Z,15.50
2018-04-09T19:48:31.964Z,14.90
2018-04-09T19:51:00.283Z,15.00
2018-04-09T19:53:27.809Z,15.00
2018-04-09T19:55:55.350Z,14.90
2018-04-09T19:58:22.901Z,14.80
2018-04-09T20:00:51.226Z,15.10
2018-04-09T20:03:18.920Z,15.10
2018-04-09T20:05:46.493Z,15.00
2018-04-09T20:08:14.032Z,14.90
2018-04-09T20:10:42.537Z,14.90
2018-04-09T20:13:10.075Z,14.90
2018-04-09T20:15:37.636Z,15.00
2018-04-09T20:18:05.171Z,14.80
2018-04-09T20:20:32.709Z,14.70
2018-04-09T20:23:02.963Z,14.70
2018-04-09T20:25:30.492Z,14.70
2018-04-09T20:27:58.046Z,14.60
2018-04-09T20:30:25.570Z,14.60
2018-04-09T20:32:53.115Z,14.60
2018-04-09T20:35:20.752Z,14.60
2018-04-09T20:37:48.387Z,14.70
2018-04-09T20:40:15.963Z,14.70
2018-04-09T20:42:43.495Z,14.70
2018-04-09T20:45:11.023Z,14.70
2018-04-09T20:47:38.594Z,14.60
2018-04-09T20:50:07.496Z,14.50
2018-04-09T20:52:36.999Z,14.40
2018-04-09T20:55:04.543Z,14.40
2018-04-09T20:57:32.080Z,14.30
2018-04-09T20:59:59.633Z,14.20
2018-04-09T21:02:27.180Z,14.20
2018-04-09T21:04:54.747Z,14.20
2018-04-09T21:07:22.278Z,14.10
2018-04-09T21:09:49.824Z,14.20
2018-04-09T21:12:18.105Z,14.10
2018-04-09T21:14:46.397Z,14.10
2018-04-09T21:17:13.996Z,14.10
2018-04-09T21:19:41.590Z,14.10
2018-04-09T21:22:10.881Z,13.90
2018-04-09T21:24:38.474Z,13.90
2018-04-09T21:27:06.000Z,13.90
2018-04-09T21:29:33.544Z,13.80
2018-04-09T21:32:02.033Z,13.80
2018-04-09T21:34:29.587Z,13.80
2018-04-09T21:36:57.109Z,13.80
2018-04-09T21:39:24.636Z,13.80
2018-04-09T21:41:53.904Z,13.80
2018-04-09T21:44:21.442Z,13.70
2018-04-09T21:46:48.985Z,13.70
2018-04-09T21:49:16.504Z,13.70
2018-04-09T21:51:45.808Z,13.60
2018-04-09T21:54:13.332Z,13.60
2018-04-09T21:56:41.830Z,13.60
2018-04-09T21:59:10.157Z,13.60
2018-04-09T22:01:37.686Z,13.60
2018-04-09T22:04:05.247Z,13.60
2018-04-09T22:06:32.784Z,13.70
2018-04-09T22:09:00.313Z,13.70
2018-04-09T22:11:27.863Z,13.70
2018-04-09T22:13:56.346Z,13.60
2018-04-09T22:16:23.900Z,13.60
2018-04-09T22:18:51.426Z,13.50
2018-04-09T22:21:18.957Z,13.50
2018-04-09T22:23:46.508Z,13.50
2018-04-09T22:26:14.038Z,13.60
2018-04-09T22:28:43.565Z,13.60
2018-04-09T22:31:12.070Z,13.50
2018-04-09T22:33:40.365Z,13.40
2018-04-09T22:36:07.940Z,13.40
2018-04-09T22:38:35.457Z,13.40
2018-04-09T22:41:03.016Z,13.20
2018-04-09T22:43:30.538Z,13.30
2018-04-09T22:45:58.097Z,13.30
2018-04-09T22:48:25.640Z,13.40
2018-04-09T22:50:53.161Z,13.40
2018-04-09T22:53:20.705Z,13.40
2018-04-09T22:55:48.259Z,13.50
2018-04-09T22:58:15.812Z,13.50
2018-04-09T23:00:44.326Z,13.20
2018-04-09T23:03:11.850Z,13.20
2018-04-09T23:05:39.409Z,13.30
2018-04-09T23:08:06.931Z,13.40
2018-04-09T23:10:34.583Z,13.40
2018-04-09T23:13:02.130Z,13.30
2018-04-09T23:15:30.700Z,13.40
2018-04-09T23:17:58.227Z,13.20
2018-04-09T23:20:25.749Z,13.10
2018-04-09T23:22:54.293Z,13.00
2018-04-09T23:25:21.814Z,12.80
2018-04-09T23:27:49.368Z,12.90
2018-04-09T23:30:16.908Z,13.00
2018-04-09T23:32:45.376Z,13.10
2018-04-09T23:35:12.934Z,13.20
2018-04-09T23:37:40.451Z,13.20
2018-04-09T23:40:08.005Z,13.20
2018-04-09T23:42:37.260Z,13.20
2018-04-09T23:45:05.759Z,13.20
2018-04-09T23:47:33.314Z,13.20
2018-04-09T23:50:01.069Z,13.20
2018-04-09T23:52:28.623Z,13.20
2018-04-09T23:54:57.145Z,13.00
2018-04-09T23:57:24.704Z,12.90
2018-04-09T23:59:52.225Z,12.90
